Time;durP1;ratioP1;P1;durP2;ratioP2;P2;SDS_P1;SDS_P2;PMS_P1;PMS_P2;Temp;Humidity;BMP_temperature;BMP_pressure;BME280_temperature;BME280_humidity;BME280_pressure;Samples;Min_cycle;Max_cycle;Signal;HPM_P1;HPM_P2
2023/03/28 00:00:12;;;;;;;2.85;2.65;;;5.00;71.00;;;;;;4998054;28;20263;-73
2023/03/28 00:02:40;;;;;;;2.78;2.67;;;5.00;71.40;;;;;;4995932;28;20201;-73
2023/03/28 00:05:08;;;;;;;2.58;2.47;;;5.00;71.30;;;;;;5016037;28;20200;-74
2023/03/28 00:07:35;;;;;;;2.78;2.67;;;5.00;72.00;;;;;;5000355;28;20217;-73
2023/03/28 00:10:02;;;;;;;3.15;2.95;;;5.00;71.40;;;;;;4998492;28;20228;-73
2023/03/28 00:12:29;;;;;;;2.70;2.50;;;5.00;71.40;;;;;;4994092;28;20208;-74
2023/03/28 00:14:57;;;;;;;3.47;3.28;;;5.00;71.80;;;;;;4997208;28;20201;-73
2023/03/28 00:17:24;;;;;;;3.00;2.80;;;5.10;71.30;;;;;;4994259;28;20201;-73
2023/03/28 00:19:53;;;;;;;2.70;2.50;;;5.10;71.20;;;;;;4999929;28;20262;-73
2023/03/28 00:22:20;;;;;;;2.70;2.50;;;5.10;71.20;;;;;;4997249;28;20200;-73
2023/03/28 00:24:47;;;;;;;2.83;2.70;;;5.10;71.20;;;;;;5001385;28;20737;-73
2023/03/28 00:27:15;;;;;;;2.55;2.45;;;5.10;71.40;;;;;;4997143;28;20221;-73
2023/03/28 00:29:42;;;;;;;2.50;2.40;;;5.10;71.30;;;;;;4996044;28;20310;-73
2023/03/28 00:32:09;;;;;;;2.67;2.58;;;5.00;71.50;;;;;;5000653;28;20232;-74
2023/03/28 00:34:36;;;;;;;3.15;2.95;;;5.00;71.90;;;;;;5000204;28;20714;-74
2023/03/28 00:37:05;;;;;;;3.00;2.80;;;5.00;71.90;;;;;;4992814;28;20879;-74
2023/03/28 00:39:33;;;;;;;2.30;2.20;;;5.10;72.00;;;;;;4998824;28;20231;-73
2023/03/28 00:42:02;;;;;;;2.75;2.55;;;5.10;71.80;;;;;;5003885;28;20667;-73
2023/03/28 00:44:47;;;;;;;2.88;2.78;;;5.20;71.90;;;;;;4996922;28;20204;-73
2023/03/28 00:47:25;;;;;;;2.92;2.70;;;5.20;72.10;;;;;;4999309;28;20247;-73
2023/03/28 00:49:55;;;;;;;2.90;2.80;;;5.20;72.20;;;;;;5003945;28;20288;-74
2023/03/28 00:52:28;;;;;;;2.90;2.80;;;5.20;72.40;;;;;;5001126;28;20259;-73
2023/03/28 00:54:56;;;;;;;2.72;2.50;;;5.20;72.60;;;;;;5029900;28;20200;-74
2023/03/28 00:57:24;;;;;;;2.40;2.30;;;5.20;72.90;;;;;;5025319;28;20198;-74
2023/03/28 00:59:51;;;;;;;2.78;2.67;;;5.10;72.90;;;;;;5004761;28;20221;-73
2023/03/28 01:02:19;;;;;;;2.55;2.38;;;5.10;73.40;;;;;;5001855;28;20707;-73
2023/03/28 01:04:53;;;;;;;2.63;2.53;;;5.10;73.60;;;;;;5015736;28;20200;-74
2023/03/28 01:07:20;;;;;;;2.92;2.75;;;5.10;74.10;;;;;;5005424;28;20216;-74
2023/03/28 01:09:49;;;;;;;3.08;2.88;;;5.10;74.50;;;;;;5002915;28;20258;-73
2023/03/28 01:12:19;;;;;;;2.38;2.28;;;5.10;74.40;;;;;;5001143;28;20207;-73
2023/03/28 01:14:47;;;;;;;2.20;2.10;;;5.10;74.90;;;;;;5003626;28;20232;-74
2023/03/28 01:17:14;;;;;;;2.70;2.60;;;5.10;76.10;;;;;;5003689;28;20231;-74
2023/03/28 01:20:02;;;;;;;2.80;2.70;;;5.00;74.90;;;;;;4999799;28;20217;-73
2023/03/28 01:23:09;;;;;;;2.92;2.78;;;5.10;75.70;;;;;;5002079;28;20200;-73
2023/03/28 01:25:58;;;;;;;2.65;2.55;;;5.00;75.60;;;;;;5001844;28;20589;-73
2023/03/28 01:28:39;;;;;;;2.58;2.47;;;5.10;76.20;;;;;;5001909;28;20266;-73
2023/03/28 01:31:39;;;;;;;2.65;2.50;;;5.10;76.70;;;;;;4998922;28;20699;-73
2023/03/28 01:34:50;;;;;;;2.40;2.30;;;5.00;76.70;;;;;;4997349;28;20208;-72
2023/03/28 01:37:30;;;;;;;2.60;2.50;;;5.00;77.40;;;;;;4964386;28;20303;-73
2023/03/28 01:40:10;;;;;;;3.05;2.95;;;4.90;77.30;;;;;;5002816;28;20278;-73
2023/03/28 01:42:47;;;;;;;2.60;2.50;;;4.80;77.70;;;;;;4995942;28;20207;-74
2023/03/28 01:45:21;;;;;;;3.05;2.95;;;4.80;77.70;;;;;;5001851;28;20707;-73
2023/03/28 01:47:53;;;;;;;2.40;2.30;;;4.80;78.00;;;;;;4999175;28;20266;-73
2023/03/28 01:50:26;;;;;;;2.63;2.53;;;4.70;78.70;;;;;;5000766;28;20730;-73
2023/03/28 01:53:02;;;;;;;2.60;2.50;;;4.70;78.80;;;;;;5002219;28;20674;-73
2023/03/28 01:55:37;;;;;;;2.80;2.70;;;4.60;80.00;;;;;;5000130;28;20207;-72
2023/03/28 01:58:12;;;;;;;2.70;2.50;;;4.60;79.50;;;;;;5002300;28;20200;-73
2023/03/28 02:00:42;;;;;;;2.42;2.33;;;4.60;79.50;;;;;;4999617;28;20224;-74
2023/03/28 02:03:17;;;;;;;2.78;2.58;;;4.50;79.90;;;;;;5011357;28;20209;-73
2023/03/28 02:05:47;;;;;;;3.00;2.80;;;4.50;80.00;;;;;;5001956;28;20205;-73
2023/03/28 02:08:17;;;;;;;2.63;2.53;;;4.50;79.90;;;;;;4998165;28;20224;-73
2023/03/28 02:10:47;;;;;;;2.25;2.15;;;4.40;79.90;;;;;;5001834;28;20229;-72
2023/03/28 02:13:18;;;;;;;2.67;2.58;;;4.40;80.20;;;;;;4999145;28;20200;-73
2023/03/28 02:15:48;;;;;;;2.80;2.60;;;4.40;80.20;;;;;;5003298;28;20224;-74
2023/03/28 02:18:20;;;;;;;2.70;2.50;;;4.40;80.60;;;;;;5003611;28;20933;-74
2023/03/28 02:20:52;;;;;;;2.60;2.50;;;4.40;80.50;;;;;;4999196;28;20233;-73
2023/03/28 02:23:26;;;;;;;2.25;2.15;;;4.30;80.70;;;;;;5001732;28;20201;-73
2023/03/28 02:25:53;;;;;;;2.53;2.42;;;4.30;80.80;;;;;;5001910;28;20268;-73
2023/03/28 02:28:21;;;;;;;2.58;2.47;;;4.20;81.10;;;;;;5002338;28;20282;-73
2023/03/28 02:30:48;;;;;;;2.78;2.67;;;4.30;81.10;;;;;;4999975;28;20685;-73
2023/03/28 02:33:37;;;;;;;2.70;2.60;;;4.30;81.30;;;;;;5003454;28;20637;-73
2023/03/28 02:36:21;;;;;;;2.97;2.78;;;4.30;81.50;;;;;;5001674;28;20197;-73
2023/03/28 02:39:01;;;;;;;2.92;2.83;;;4.30;81.10;;;;;;4997380;28;20224;-73
2023/03/28 02:41:35;;;;;;;2.85;2.65;;;4.30;81.60;;;;;;5002831;28;20291;-73
2023/03/28 02:44:32;;;;;;;2.83;2.72;;;4.20;81.90;;;;;;5003526;28;20212;-73
2023/03/28 02:47:09;;;;;;;2.42;2.33;;;4.20;82.10;;;;;;4999534;28;20728;-73
2023/03/28 02:49:47;;;;;;;2.72;2.63;;;4.20;82.70;;;;;;5002115;28;20224;-73
2023/03/28 02:52:22;;;;;;;2.67;2.47;;;4.10;82.70;;;;;;5000821;28;20902;-74
2023/03/28 02:54:57;;;;;;;2.80;2.70;;;4.10;82.90;;;;;;5000032;28;20299;-73
2023/03/28 02:57:32;;;;;;;2.90;2.80;;;4.10;82.60;;;;;;5002900;28;20227;-73
2023/03/28 03:00:11;;;;;;;2.85;2.75;;;4.10;83.10;;;;;;5002529;28;20239;-73
2023/03/28 03:02:38;;;;;;;3.00;2.85;;;4.00;84.60;;;;;;5013367;28;20867;-73
2023/03/28 03:05:06;;;;;;;3.03;2.83;;;4.00;84.20;;;;;;4999416;28;20225;-73
2023/03/28 03:07:33;;;;;;;2.55;2.45;;;4.00;84.00;;;;;;4999668;28;20307;-73
2023/03/28 03:10:02;;;;;;;3.25;3.05;;;3.90;84.10;;;;;;5000566;28;20247;-73
2023/03/28 03:12:29;;;;;;;2.60;2.50;;;3.80;84.40;;;;;;5003683;28;20204;-73
2023/03/28 03:14:59;;;;;;;2.22;2.13;;;3.80;84.90;;;;;;4999406;28;20784;-72
2023/03/28 03:17:27;;;;;;;2.80;2.60;;;3.80;85.30;;;;;;5004611;28;20250;-73
2023/03/28 03:19:54;;;;;;;2.63;2.53;;;3.90;85.80;;;;;;5000126;28;20263;-71
2023/03/28 03:22:21;;;;;;;2.70;2.60;;;3.80;85.90;;;;;;5000374;28;20775;-71
2023/03/28 03:24:49;;;;;;;2.80;2.70;;;3.90;86.30;;;;;;5005889;28;20257;-71
2023/03/28 03:27:18;;;;;;;2.45;2.35;;;3.90;86.30;;;;;;5027899;28;20219;-73
2023/03/28 03:29:47;;;;;;;2.58;2.47;;;3.80;86.40;;;;;;5027737;28;20247;-74
2023/03/28 03:32:14;;;;;;;2.65;2.55;;;3.80;86.30;;;;;;5000706;28;20263;-71
2023/03/28 03:34:41;;;;;;;2.90;2.80;;;3.80;86.70;;;;;;4999973;28;20200;-71
2023/03/28 03:37:08;;;;;;;2.63;2.53;;;3.70;86.90;;;;;;5005458;28;20226;-71
2023/03/28 03:39:36;;;;;;;3.10;3.00;;;3.70;86.50;;;;;;5002354;28;20238;-71
2023/03/28 03:42:03;;;;;;;2.72;2.63;;;3.70;86.80;;;;;;5002630;28;20580;-72
2023/03/28 03:44:31;;;;;;;2.75;2.65;;;3.70;86.50;;;;;;5003296;28;20279;-73
2023/03/28 03:46:58;;;;;;;2.85;2.75;;;3.70;87.10;;;;;;5003687;28;20262;-73
2023/03/28 03:49:25;;;;;;;2.50;2.40;;;3.60;87.20;;;;;;5002198;28;20841;-72
2023/03/28 03:51:52;;;;;;;3.10;2.90;;;3.60;86.70;;;;;;5004433;28;20200;-71
2023/03/28 03:54:19;;;;;;;2.92;2.72;;;3.60;86.60;;;;;;5002457;28;20231;-73
2023/03/28 03:56:47;;;;;;;2.63;2.53;;;3.60;86.60;;;;;;5004285;28;20247;-73
2023/03/28 03:59:15;;;;;;;3.00;2.80;;;3.60;86.30;;;;;;5008686;28;20425;-73
2023/03/28 04:01:44;;;;;;;3.00;2.90;;;3.50;86.20;;;;;;5011668;28;20243;-73
2023/03/28 04:04:11;;;;;;;2.85;2.75;;;3.50;86.50;;;;;;5005862;28;20221;-71
2023/03/28 04:06:38;;;;;;;3.25;3.05;;;3.50;86.70;;;;;;5005099;28;20276;-72
2023/03/28 04:09:06;;;;;;;2.75;2.65;;;3.50;87.10;;;;;;5005297;28;20251;-71
2023/03/28 04:11:33;;;;;;;2.65;2.55;;;3.50;87.90;;;;;;4999440;28;20794;-74
2023/03/28 04:14:00;;;;;;;2.83;2.63;;;3.40;88.20;;;;;;5000779;28;20204;-71
2023/03/28 04:16:29;;;;;;;3.35;3.05;;;3.40;88.50;;;;;;5001067;28;20239;-73
2023/03/28 04:18:58;;;;;;;2.80;2.70;;;3.40;88.60;;;;;;4994297;28;20205;-72
2023/03/28 04:21:28;;;;;;;2.88;2.78;;;3.40;89.60;;;;;;4997387;28;20772;-72
2023/03/28 04:23:56;;;;;;;3.08;2.97;;;3.30;89.20;;;;;;4995687;28;20250;-72
2023/03/28 04:26:25;;;;;;;2.97;2.85;;;3.30;89.70;;;;;;4997560;28;20675;-73
2023/03/28 04:28:53;;;;;;;3.17;2.97;;;3.30;89.80;;;;;;4996159;28;20754;-74
2023/03/28 04:31:21;;;;;;;2.92;2.83;;;3.30;89.60;;;;;;5000073;28;20695;-73
2023/03/28 04:33:52;;;;;;;3.08;2.90;;;3.30;88.80;;;;;;4995495;28;20210;-73
2023/03/28 04:36:21;;;;;;;2.95;2.85;;;3.30;88.30;;;;;;4998845;28;20203;-73
2023/03/28 04:38:48;;;;;;;3.10;3.00;;;3.40;88.00;;;;;;4995771;28;20215;-72
2023/03/28 04:41:16;;;;;;;2.92;2.83;;;3.30;88.20;;;;;;4997459;28;20208;-71
2023/03/28 04:43:43;;;;;;;2.88;2.78;;;3.30;88.50;;;;;;4998792;28;20291;-73
2023/03/28 04:46:11;;;;;;;3.55;3.25;;;3.30;88.30;;;;;;4997791;28;20219;-72
2023/03/28 04:48:38;;;;;;;2.88;2.78;;;3.30;89.30;;;;;;4999813;28;20216;-71
2023/03/28 04:51:05;;;;;;;3.10;3.00;;;3.40;88.90;;;;;;5000635;28;20271;-72
2023/03/28 04:53:35;;;;;;;2.75;2.60;;;3.40;88.40;;;;;;4998810;28;20299;-72
2023/03/28 04:56:02;;;;;;;2.80;2.70;;;3.40;87.90;;;;;;4995474;28;20204;-71
2023/03/28 04:58:29;;;;;;;2.88;2.78;;;3.40;87.60;;;;;;5006815;28;20196;-74
2023/03/28 05:00:56;;;;;;;3.00;2.90;;;3.40;87.50;;;;;;5002067;28;20220;-73
2023/03/28 05:03:24;;;;;;;3.00;2.90;;;3.50;87.30;;;;;;5000372;28;20243;-73
2023/03/28 05:05:52;;;;;;;2.58;2.47;;;3.50;87.10;;;;;;4997923;28;20299;-73
2023/03/28 05:08:21;;;;;;;2.65;2.55;;;3.50;87.00;;;;;;4996672;28;20220;-74
2023/03/28 05:10:50;;;;;;;3.10;2.90;;;3.50;87.00;;;;;;5000789;28;20315;-73
2023/03/28 05:13:17;;;;;;;2.95;2.85;;;3.60;86.80;;;;;;4999745;28;20232;-73
2023/03/28 05:15:46;;;;;;;2.85;2.75;;;3.70;86.90;;;;;;5001851;28;20216;-73
2023/03/28 05:18:13;;;;;;;3.00;2.90;;;3.70;86.90;;;;;;4996577;28;20248;-74
2023/03/28 05:20:40;;;;;;;2.92;2.75;;;3.70;86.90;;;;;;4998628;28;20727;-74
2023/03/28 05:23:07;;;;;;;2.90;2.80;;;3.60;86.80;;;;;;4999891;28;20201;-73
2023/03/28 05:25:35;;;;;;;3.00;2.90;;;3.60;86.90;;;;;;4998925;28;20232;-72
2023/03/28 05:28:04;;;;;;;2.72;2.63;;;3.60;87.00;;;;;;5000023;28;20220;-73
2023/03/28 05:30:31;;;;;;;3.20;3.00;;;3.60;87.10;;;;;;5002825;28;20256;-72
2023/03/28 05:32:58;;;;;;;2.95;2.85;;;3.60;87.10;;;;;;4999873;28;20251;-72
2023/03/28 05:35:25;;;;;;;2.90;2.80;;;3.60;87.20;;;;;;4996836;28;20251;-72
2023/03/28 05:37:52;;;;;;;2.88;2.78;;;3.70;87.30;;;;;;5004534;28;20196;-71
2023/03/28 05:40:19;;;;;;;2.97;2.88;;;3.70;86.90;;;;;;4999811;28;20228;-74
2023/03/28 05:42:46;;;;;;;2.58;2.47;;;3.80;87.00;;;;;;4999056;28;20619;-73
2023/03/28 05:45:15;;;;;;;3.20;3.00;;;4.20;87.10;;;;;;5003239;28;20247;-71
2023/03/28 05:47:42;;;;;;;3.10;3.00;;;4.60;86.60;;;;;;5004944;28;20215;-73
2023/03/28 05:50:10;;;;;;;3.55;3.35;;;5.10;85.80;;;;;;5001491;28;20302;-71
2023/03/28 05:52:37;;;;;;;2.80;2.70;;;5.60;85.90;;;;;;5005209;28;20240;-71
2023/03/28 05:55:05;;;;;;;4.07;2.78;;;5.90;86.10;;;;;;5029001;28;20260;-71
2023/03/28 05:57:33;;;;;;;3.50;3.17;;;6.20;85.70;;;;;;5027329;28;20223;-72
2023/03/28 06:00:00;;;;;;;3.22;3.03;;;6.50;84.90;;;;;;5006766;28;20247;-71
2023/03/28 06:02:29;;;;;;;3.80;3.30;;;6.60;84.30;;;;;;5004923;28;20212;-74
2023/03/28 06:04:56;;;;;;;3.28;3.05;;;6.80;84.30;;;;;;5002455;28;20283;-73
2023/03/28 06:07:23;;;;;;;3.42;3.22;;;6.90;83.90;;;;;;4996048;28;20302;-72
2023/03/28 06:09:50;;;;;;;3.60;3.30;;;7.20;84.70;;;;;;5001958;28;20876;-72
2023/03/28 06:12:17;;;;;;;3.53;3.33;;;7.40;85.00;;;;;;5003830;28;20204;-73
2023/03/28 06:14:44;;;;;;;3.15;2.95;;;7.50;84.40;;;;;;4999373;28;20204;-71
2023/03/28 06:17:11;;;;;;;3.20;3.00;;;7.50;84.70;;;;;;5000196;28;20711;-71
2023/03/28 06:19:40;;;;;;;2.78;2.60;;;7.60;84.70;;;;;;5000266;28;20267;-72
2023/03/28 06:22:07;;;;;;;2.75;2.55;;;7.70;83.70;;;;;;4995817;28;20749;-73
2023/03/28 06:24:34;;;;;;;2.92;2.72;;;7.80;83.00;;;;;;4999331;28;20211;-74
2023/03/28 06:27:01;;;;;;;3.40;3.10;;;8.00;83.60;;;;;;5001759;28;20205;-72
2023/03/28 06:29:28;;;;;;;3.13;2.92;;;8.00;86.10;;;;;;4998820;28;20318;-72
2023/03/28 06:31:55;;;;;;;3.10;2.80;;;8.10;86.10;;;;;;4998122;28;20200;-73
2023/03/28 06:34:22;;;;;;;3.28;3.08;;;8.10;86.70;;;;;;4999043;28;20200;-71
2023/03/28 06:36:50;;;;;;;3.22;3.03;;;8.10;87.40;;;;;;5004962;28;20239;-72
2023/03/28 06:39:17;;;;;;;3.70;3.13;;;8.40;88.40;;;;;;5001049;28;20221;-72
2023/03/28 06:41:44;;;;;;;3.20;3.00;;;8.70;88.70;;;;;;4998615;28;20236;-71
2023/03/28 06:44:11;;;;;;;3.08;2.88;;;8.80;88.50;;;;;;4999731;28;20220;-72
2023/03/28 06:46:38;;;;;;;4.85;3.00;;;8.80;87.80;;;;;;5004739;28;20240;-72
2023/03/28 06:49:05;;;;;;;3.00;2.70;;;8.80;88.90;;;;;;5002795;28;20275;-72
2023/03/28 06:51:32;;;;;;;3.72;2.90;;;9.00;89.20;;;;;;5002140;28;20200;-72
2023/03/28 06:54:01;;;;;;;3.42;3.10;;;9.10;89.30;;;;;;5001151;28;20274;-71
2023/03/28 06:56:28;;;;;;;5.78;3.97;;;9.20;88.90;;;;;;5021110;28;20231;-71
2023/03/28 06:58:55;;;;;;;4.97;3.42;;;9.10;86.00;;;;;;5001249;28;20197;-74
2023/03/28 07:01:22;;;;;;;3.60;3.30;;;8.90;86.20;;;;;;4998468;28;20197;-74
2023/03/28 07:03:49;;;;;;;3.65;3.10;;;8.90;86.00;;;;;;5004227;28;20497;-74
2023/03/28 07:06:16;;;;;;;3.28;3.08;;;8.70;85.00;;;;;;4999424;28;20247;-72
2023/03/28 07:08:43;;;;;;;4.30;2.92;;;8.60;85.20;;;;;;5001503;28;20225;-74
2023/03/28 07:11:11;;;;;;;2.97;2.67;;;8.70;89.30;;;;;;5000122;28;20936;-73
2023/03/28 07:13:38;;;;;;;4.45;3.30;;;8.80;87.40;;;;;;4998638;28;20267;-72
2023/03/28 07:16:07;;;;;;;3.25;2.95;;;8.90;86.80;;;;;;5000465;28;20204;-71
2023/03/28 07:18:34;;;;;;;2.90;2.70;;;8.80;85.50;;;;;;5001887;28;20266;-74
2023/03/28 07:21:05;;;;;;;2.90;2.70;;;9.00;86.20;;;;;;5000322;28;20382;-71
2023/03/28 07:23:32;;;;;;;3.28;2.97;;;9.40;85.20;;;;;;5025498;22;20255;-68
2023/03/28 07:25:59;;;;;;;4.53;3.60;;;9.60;83.20;;;;;;5036256;28;20234;-68
2023/03/28 07:28:28;;;;;;;4.07;3.00;;;9.70;90.50;;;;;;5033926;28;20329;-67
2023/03/28 07:30:55;;;;;;;3.42;3.13;;;9.80;88.70;;;;;;5037361;28;20199;-69
2023/03/28 07:33:22;;;;;;;3.45;3.13;;;9.80;91.00;;;;;;5040893;28;20233;-69
2023/03/28 07:35:49;;;;;;;3.53;2.90;;;10.00;90.60;;;;;;5037305;28;20226;-69
2023/03/28 07:38:16;;;;;;;5.93;3.05;;;10.20;90.10;;;;;;5037440;28;20206;-69
2023/03/28 07:40:43;;;;;;;2.90;2.60;;;10.60;88.70;;;;;;5034210;28;20207;-69
2023/03/28 07:43:10;;;;;;;3.90;3.30;;;10.90;87.40;;;;;;5035336;28;20736;-73
2023/03/28 07:45:38;;;;;;;4.65;2.80;;;11.20;86.90;;;;;;5035115;28;20226;-69
2023/03/28 07:48:06;;;;;;;3.35;2.88;;;11.30;86.40;;;;;;5038109;28;20203;-69
2023/03/28 07:50:34;;;;;;;3.08;2.72;;;11.70;83.60;;;;;;5035233;28;20213;-69
2023/03/28 07:53:01;;;;;;;2.72;2.53;;;11.50;83.80;;;;;;5034590;28;20207;-69
2023/03/28 07:55:28;;;;;;;2.75;2.55;;;11.30;81.50;;;;;;5032183;28;20203;-72
2023/03/28 07:57:55;;;;;;;2.97;2.50;;;11.70;82.60;;;;;;5035559;28;20230;-69
2023/03/28 08:00:23;;;;;;;2.50;2.30;;;11.60;79.70;;;;;;5033072;28;20306;-69
2023/03/28 08:02:51;;;;;;;2.47;2.35;;;11.70;79.90;;;;;;5031125;28;20195;-69
2023/03/28 08:05:18;;;;;;;3.28;2.25;;;11.70;79.30;;;;;;5038067;28;20313;-70
2023/03/28 08:07:46;;;;;;;2.63;2.42;;;11.90;79.80;;;;;;5035254;28;20389;-69
2023/03/28 08:10:13;;;;;;;2.35;2.15;;;12.00;81.90;;;;;;5034393;28;20246;-70
2023/03/28 08:12:41;;;;;;;3.15;2.20;;;12.00;78.70;;;;;;5033183;28;20199;-70
2023/03/28 08:15:09;;;;;;;3.10;2.45;;;12.00;80.50;;;;;;5031132;28;20227;-70
2023/03/28 08:17:37;;;;;;;2.35;2.15;;;11.70;79.60;;;;;;5039687;28;20195;-73
2023/03/28 08:20:09;;;;;;;4.43;2.40;;;11.80;82.50;;;;;;5038314;28;20226;-70
2023/03/28 08:22:36;;;;;;;2.38;2.22;;;11.90;83.00;;;;;;5035974;28;20206;-74
2023/03/28 08:25:04;;;;;;;4.30;2.30;;;12.10;83.00;;;;;;5033782;28;20222;-71
2023/03/28 08:27:31;;;;;;;1.90;1.80;;;12.60;79.80;;;;;;5030467;28;20531;-78
2023/03/28 08:29:58;;;;;;;2.83;2.13;;;12.90;77.70;;;;;;5034360;28;20227;-72
2023/03/28 08:32:25;;;;;;;2.38;2.20;;;13.30;75.30;;;;;;5034916;28;20299;-72
2023/03/28 08:34:52;;;;;;;2.22;2.10;;;13.20;72.00;;;;;;5033373;28;20218;-71
2023/03/28 08:37:21;;;;;;;2.13;2.00;;;13.00;72.50;;;;;;5029653;28;20203;-71
2023/03/28 08:39:48;;;;;;;1.88;1.77;;;12.80;74.50;;;;;;5032870;28;20206;-72
2023/03/28 08:42:32;;;;;;;2.08;1.98;;;13.00;72.70;;;;;;5033272;28;20202;-73
2023/03/28 08:45:19;;;;;;;2.28;2.08;;;12.90;68.60;;;;;;5036355;28;20310;-71
2023/03/28 08:47:57;;;;;;;2.33;2.13;;;13.10;72.70;;;;;;5031342;28;20234;-72
2023/03/28 08:50:29;;;;;;;2.13;2.03;;;13.10;71.10;;;;;;5034408;28;20298;-72
2023/03/28 08:52:58;;;;;;;1.88;1.77;;;13.20;70.00;;;;;;5037211;28;20500;-68
2023/03/28 08:55:31;;;;;;;2.25;2.15;;;13.50;69.70;;;;;;5030939;28;20298;-69
2023/03/28 08:57:59;;;;;;;1.88;1.77;;;13.50;67.90;;;;;;5037201;28;20522;-70
2023/03/28 09:00:29;;;;;;;2.38;1.77;;;13.60;67.90;;;;;;5036910;28;20207;-70
2023/03/28 09:02:57;;;;;;;2.85;1.73;;;13.30;67.50;;;;;;5033225;28;20203;-70
2023/03/28 09:05:34;;;;;;;1.58;1.48;;;13.30;65.70;;;;;;5034621;28;20297;-72
2023/03/28 09:08:19;;;;;;;1.65;1.63;;;13.30;64.30;;;;;;5036324;28;20296;-70
2023/03/28 09:10:49;;;;;;;1.60;1.50;;;13.30;64.20;;;;;;5043411;28;20308;-70
2023/03/28 09:13:28;;;;;;;1.88;1.77;;;13.30;65.50;;;;;;5038249;28;20313;-70
2023/03/28 09:16:25;;;;;;;1.60;1.50;;;13.70;62.80;;;;;;5036666;28;21305;-69
2023/03/28 09:19:14;;;;;;;1.83;1.73;;;13.80;61.30;;;;;;5041724;28;20195;-70
2023/03/28 09:21:51;;;;;;;1.35;1.35;;;14.20;63.10;;;;;;5039455;28;20211;-69
2023/03/28 09:24:37;;;;;;;1.60;1.60;;;14.50;60.20;;;;;;5033649;28;20226;-70
2023/03/28 09:27:06;;;;;;;1.40;1.40;;;14.50;59.10;;;;;;5032555;28;20296;-70
2023/03/28 09:29:36;;;;;;;1.40;1.40;;;14.60;60.00;;;;;;5038492;28;20223;-70
2023/03/28 09:32:08;;;;;;;1.95;1.65;;;14.70;59.90;;;;;;5036589;28;20209;-70
2023/03/28 09:34:39;;;;;;;1.65;1.45;;;14.50;56.90;;;;;;5034311;28;20272;-70
2023/03/28 09:37:17;;;;;;;1.60;1.50;;;14.40;59.40;;;;;;5037998;28;20200;-70
2023/03/28 09:39:51;;;;;;;1.50;1.50;;;14.50;59.30;;;;;;5036919;28;20249;-69
2023/03/28 09:42:27;;;;;;;1.60;1.60;;;14.70;57.40;;;;;;5033028;28;20208;-71
2023/03/28 09:45:03;;;;;;;1.63;1.55;;;14.80;56.40;;;;;;5033609;28;20226;-69
2023/03/28 09:47:31;;;;;;;1.40;1.40;;;15.00;57.80;;;;;;5036421;28;20965;-69
2023/03/28 09:49:59;;;;;;;1.38;1.33;;;15.30;58.40;;;;;;5041624;28;20317;-69
2023/03/28 09:52:26;;;;;;;1.45;1.42;;;15.80;59.00;;;;;;5039108;28;20202;-69
2023/03/28 09:54:54;;;;;;;1.30;1.30;;;16.30;59.00;;;;;;5037691;28;20215;-69
2023/03/28 09:57:21;;;;;;;1.70;1.60;;;16.80;56.80;;;;;;5024949;28;20293;-69
2023/03/28 09:59:48;;;;;;;1.70;1.60;;;17.10;55.80;;;;;;5038469;28;20293;-70
2023/03/28 10:02:27;;;;;;;1.70;1.60;;;17.00;55.10;;;;;;5036525;28;20253;-69
2023/03/28 10:04:55;;;;;;;1.55;1.48;;;16.40;52.40;;;;;;5035403;28;20234;-69
2023/03/28 10:07:35;;;;;;;1.40;1.30;;;16.00;54.80;;;;;;5037631;28;20280;-69
2023/03/28 10:10:17;;;;;;;1.10;1.10;;;15.80;55.60;;;;;;5040875;28;20325;-69
2023/03/28 10:12:47;;;;;;;1.75;1.65;;;15.90;56.40;;;;;;5039283;28;20206;-69
2023/03/28 10:15:31;;;;;;;1.40;1.40;;;16.40;55.80;;;;;;5034123;28;20219;-70
2023/03/28 10:18:01;;;;;;;1.70;1.52;;;16.60;52.50;;;;;;5032543;28;20265;-69
2023/03/28 10:20:35;;;;;;;2.55;1.42;;;16.50;52.80;;;;;;5036315;28;20207;-69
2023/03/28 10:23:04;;;;;;;1.60;1.48;;;16.50;52.70;;;;;;5038440;28;20206;-70
2023/03/28 10:25:38;;;;;;;1.58;1.50;;;16.40;53.90;;;;;;5034349;28;20202;-69
2023/03/28 10:28:07;;;;;;;1.40;1.40;;;16.30;50.80;;;;;;5036855;28;20210;-69
2023/03/28 10:30:36;;;;;;;1.55;1.45;;;16.10;51.50;;;;;;5034184;28;20342;-70
2023/03/28 10:33:28;;;;;;;1.40;1.40;;;15.90;53.30;;;;;;5032891;28;20296;-68
2023/03/28 10:35:58;;;;;;;1.55;1.45;;;15.50;51.20;;;;;;5035625;28;20226;-69
2023/03/28 10:38:27;;;;;;;1.42;1.42;;;15.10;51.90;;;;;;5036236;28;20202;-69
2023/03/28 10:41:01;;;;;;;1.30;1.30;;;15.10;53.00;;;;;;5033307;28;20662;-69
2023/03/28 10:43:33;;;;;;;1.45;1.38;;;15.30;54.00;;;;;;5037814;28;20731;-68
2023/03/28 10:46:02;;;;;;;2.00;1.80;;;15.60;53.10;;;;;;5037116;28;20203;-69
2023/03/28 10:48:33;;;;;;;1.50;1.48;;;15.80;53.00;;;;;;5034147;28;20235;-68
2023/03/28 10:51:07;;;;;;;1.60;1.50;;;15.80;50.20;;;;;;5034178;28;20613;-68
2023/03/28 10:54:02;;;;;;;1.40;1.30;;;15.20;49.70;;;;;;5037747;28;20233;-68
2023/03/28 10:56:37;;;;;;;1.55;1.45;;;15.20;53.40;;;;;;5030903;28;20297;-68
2023/03/28 10:59:28;;;;;;;1.50;1.40;;;15.10;51.40;;;;;;5038289;28;20296;-68
2023/03/28 11:02:10;;;;;;;1.48;1.38;;;15.10;53.40;;;;;;5035721;28;20678;-67
2023/03/28 11:04:55;;;;;;;1.80;1.65;;;15.20;51.70;;;;;;5037895;28;20309;-68
2023/03/28 11:07:28;;;;;;;1.70;1.60;;;14.70;49.50;;;;;;5039720;28;20588;-68
2023/03/28 11:10:04;;;;;;;5.38;1.40;;;14.30;50.20;;;;;;5036847;28;20329;-68
2023/03/28 11:12:44;;;;;;;1.70;1.60;;;14.20;50.80;;;;;;5038169;28;20211;-67
2023/03/28 11:15:16;;;;;;;1.50;1.50;;;14.30;51.30;;;;;;5038502;28;20732;-68
2023/03/28 11:17:55;;;;;;;1.80;1.70;;;14.30;50.10;;;;;;5034956;28;20674;-68
2023/03/28 11:20:28;;;;;;;1.35;1.35;;;14.40;50.80;;;;;;5035056;28;20252;-68
2023/03/28 11:23:24;;;;;;;1.30;1.30;;;14.40;50.50;;;;;;5033956;28;20292;-68
2023/03/28 11:25:56;;;;;;;3.70;1.55;;;14.40;51.60;;;;;;5034811;28;20700;-68
2023/03/28 11:28:33;;;;;;;1.70;1.60;;;14.60;53.20;;;;;;5036488;28;20245;-67
2023/03/28 11:31:01;;;;;;;1.60;1.50;;;15.00;52.10;;;;;;5036551;28;20212;-68
2023/03/28 11:33:36;;;;;;;1.60;1.50;;;15.30;51.00;;;;;;5038547;28;20227;-68
2023/03/28 11:36:07;;;;;;;1.20;1.20;;;15.20;49.20;;;;;;5035591;28;20242;-68
2023/03/28 11:38:37;;;;;;;1.42;1.40;;;15.00;51.30;;;;;;5035729;28;20203;-68
2023/03/28 11:41:09;;;;;;;2.00;1.48;;;15.40;52.00;;;;;;5039133;28;20334;-68
2023/03/28 11:43:44;;;;;;;1.45;1.35;;;15.60;50.60;;;;;;5040301;28;20258;-68
2023/03/28 11:46:16;;;;;;;1.50;1.40;;;15.70;51.60;;;;;;5037365;28;20199;-68
2023/03/28 11:48:49;;;;;;;1.23;1.23;;;16.00;50.90;;;;;;5040420;28;20294;-68
2023/03/28 11:51:20;;;;;;;1.27;1.27;;;15.50;48.40;;;;;;5035420;28;20229;-68
2023/03/28 11:53:53;;;;;;;1.42;1.42;;;15.30;50.60;;;;;;5039716;28;20223;-68
2023/03/28 11:56:43;;;;;;;1.38;1.20;;;15.00;47.00;;;;;;5045085;28;20204;-68
2023/03/28 11:59:18;;;;;;;1.20;1.20;;;14.80;46.50;;;;;;5044571;28;20549;-68
2023/03/28 12:01:49;;;;;;;1.55;1.42;;;14.70;48.30;;;;;;5043479;28;20539;-67
2023/03/28 12:04:21;;;;;;;1.30;1.30;;;14.70;47.00;;;;;;5039883;28;20219;-68
2023/03/28 12:06:54;;;;;;;1.20;1.20;;;14.70;46.20;;;;;;5039861;28;20210;-69
2023/03/28 12:09:28;;;;;;;1.45;1.40;;;14.70;45.90;;;;;;5038854;28;20225;-68
2023/03/28 12:12:00;;;;;;;1.85;1.38;;;15.00;46.80;;;;;;5036072;28;20203;-68
2023/03/28 12:14:36;;;;;;;1.70;1.60;;;15.00;47.20;;;;;;5039576;28;20789;-67
2023/03/28 12:17:13;;;;;;;1.50;1.40;;;15.00;45.30;;;;;;5036934;28;20673;-68
2023/03/28 12:19:41;;;;;;;1.67;1.58;;;15.30;46.70;;;;;;5038129;28;20202;-68
2023/03/28 12:22:13;;;;;;;1.38;1.38;;;15.30;46.30;;;;;;5035023;28;20295;-68
2023/03/28 12:24:45;;;;;;;1.30;1.30;;;15.20;45.40;;;;;;5037065;28;20222;-68
2023/03/28 12:27:20;;;;;;;1.50;1.40;;;15.10;44.30;;;;;;5035153;28;20233;-67
2023/03/28 12:29:58;;;;;;;1.60;1.50;;;14.90;45.00;;;;;;5040174;28;20203;-67
2023/03/28 12:32:43;;;;;;;1.33;1.25;;;15.00;47.30;;;;;;5037432;28;20294;-68
2023/03/28 12:35:16;;;;;;;1.25;1.15;;;15.40;45.40;;;;;;5038036;28;20230;-68
2023/03/28 12:37:56;;;;;;;1.17;1.10;;;15.50;46.10;;;;;;5038493;28;20592;-68
2023/03/28 12:40:29;;;;;;;1.30;1.30;;;15.50;47.40;;;;;;5038221;28;20218;-67
2023/03/28 12:42:58;;;;;;;1.20;1.20;;;15.70;46.30;;;;;;5038550;28;20817;-68
2023/03/28 12:45:30;;;;;;;1.60;1.50;;;15.50;42.30;;;;;;5034495;28;20226;-68
2023/03/28 12:48:03;;;;;;;1.20;1.20;;;15.50;45.40;;;;;;5040751;28;20838;-67
2023/03/28 12:50:32;;;;;;;1.30;1.20;;;15.60;43.40;;;;;;5050135;28;20248;-68
2023/03/28 12:53:00;;;;;;;1.13;1.13;;;15.60;42.40;;;;;;5063010;28;20180;-67
2023/03/28 12:55:45;;;;;;;2.80;1.35;;;15.50;42.90;;;;;;5063386;28;20240;-67
2023/03/28 12:58:20;;;;;;;1.30;1.20;;;15.30;42.00;;;;;;5060118;28;20395;-68
2023/03/28 13:01:02;;;;;;;1.23;1.23;;;15.70;46.50;;;;;;5061687;28;20285;-69
2023/03/28 13:03:37;;;;;;;1.38;1.25;;;15.90;44.80;;;;;;5040339;28;20272;-68
2023/03/28 13:06:14;;;;;;;1.35;1.13;;;16.10;45.80;;;;;;5037630;28;20496;-68
2023/03/28 13:09:03;;;;;;;1.17;1.10;;;16.00;43.10;;;;;;5036201;28;20247;-68
2023/03/28 13:11:39;;;;;;;1.33;1.27;;;15.90;42.30;;;;;;5033127;28;20225;-68
2023/03/28 13:14:26;;;;;;;1.20;1.10;;;16.00;45.10;;;;;;5039831;28;20219;-68